Time;durP1;ratioP1;P1;durP2;ratioP2;P2;SDS_P1;SDS_P2;PMS_P1;PMS_P2;Temp;Humidity;BMP_temperature;BMP_pressure;BME280_temperature;BME280_humidity;BME280_pressure;Samples;Min_cycle;Max_cycle;Signal;HPM_P1;HPM_P2
2022/01/24 00:01:54;;;;;;;19.75;10.95;;;7.30;99.90;;;;;;5034831;28;20025;-76
2022/01/24 00:04:23;;;;;;;16.67;10.77;;;7.30;99.90;;;;;;5039108;28;20021;-75
2022/01/24 00:06:49;;;;;;;15.07;9.85;;;7.30;99.90;;;;;;5047141;28;20026;-75
2022/01/24 00:09:16;;;;;;;17.98;10.05;;;7.30;99.90;;;;;;5045318;28;20043;-76
2022/01/24 00:11:46;;;;;;;15.48;8.95;;;7.20;99.90;;;;;;5045092;28;20022;-76
2022/01/24 00:27:11;;;;;;;16.23;8.35;;;7.20;99.90;;;;;;5037836;28;20032;-76
2022/01/24 00:29:37;;;;;;;14.32;8.02;;;7.10;99.90;;;;;;5038046;28;20052;-75
2022/01/24 00:32:03;;;;;;;18.00;8.38;;;7.10;99.90;;;;;;5040580;28;20038;-76
2022/01/24 00:34:29;;;;;;;14.40;7.65;;;7.10;99.90;;;;;;5046527;28;20274;-77
2022/01/24 00:36:55;;;;;;;13.02;8.50;;;7.10;99.90;;;;;;5042848;28;20394;-76
2022/01/24 00:39:22;;;;;;;14.70;9.07;;;7.10;99.90;;;;;;5037325;28;20112;-76
2022/01/24 00:44:40;;;;;;;16.52;8.43;;;7.10;99.90;;;;;;5038317;28;20065;-75
2022/01/24 00:47:09;;;;;;;15.52;8.80;;;7.10;99.90;;;;;;5054292;28;20028;-76
2022/01/24 00:54:54;;;;;;;14.63;7.88;;;7.10;99.90;;;;;;5050627;28;19911;-75
2022/01/24 00:57:21;;;;;;;14.27;8.23;;;7.10;99.90;;;;;;5075926;22;20049;-74
2022/01/24 00:59:48;;;;;;;15.85;8.02;;;7.00;99.90;;;;;;5054972;28;20083;-73
2022/01/24 01:02:14;;;;;;;15.85;8.18;;;7.00;99.90;;;;;;5055262;28;20052;-74
2022/01/24 01:07:28;;;;;;;14.85;8.27;;;7.00;99.90;;;;;;5054854;28;20511;-74
2022/01/24 01:18:17;;;;;;;15.63;9.43;;;6.90;99.90;;;;;;5054975;28;20266;-74
2022/01/24 01:23:30;;;;;;;13.05;9.65;;;6.90;99.90;;;;;;5054917;28;20102;-74
2022/01/24 01:25:59;;;;;;;13.38;9.10;;;6.90;99.90;;;;;;5054069;28;20021;-74
2022/01/24 01:28:26;;;;;;;16.35;9.23;;;6.90;99.90;;;;;;5054955;28;20024;-74
2022/01/24 01:30:56;;;;;;;16.67;9.45;;;6.90;99.90;;;;;;5054838;28;20024;-74
2022/01/24 01:33:34;;;;;;;13.43;9.15;;;6.90;99.90;;;;;;5054575;28;20055;-74
2022/01/24 01:37:01;;;;;;;15.70;9.65;;;6.90;99.90;;;;;;5053104;28;20041;-74
2022/01/24 01:53:15;;;;;;;17.05;9.48;;;6.70;99.90;;;;;;5054422;28;20167;-73
2022/01/24 01:55:41;;;;;;;16.45;9.27;;;6.70;99.90;;;;;;5053834;28;20070;-74
2022/01/24 01:58:11;;;;;;;18.58;9.73;;;6.70;99.90;;;;;;5053477;28;20044;-74
2022/01/24 02:00:39;;;;;;;12.40;9.52;;;6.70;99.90;;;;;;5062672;28;20327;-74
2022/01/24 02:03:05;;;;;;;20.33;10.55;;;6.70;99.90;;;;;;5053969;28;20059;-74
2022/01/24 02:05:31;;;;;;;15.82;9.63;;;6.70;99.90;;;;;;5053780;28;20049;-73
2022/01/24 02:07:57;;;;;;;14.90;9.93;;;6.80;99.90;;;;;;5054144;28;20470;-74
2022/01/24 02:10:24;;;;;;;13.68;9.75;;;6.80;99.90;;;;;;5052720;28;20466;-73
2022/01/24 02:12:52;;;;;;;15.57;9.88;;;6.80;99.90;;;;;;5054184;28;20101;-74
2022/01/24 02:15:50;;;;;;;16.85;10.10;;;6.80;99.90;;;;;;5054256;28;20029;-73
2022/01/24 02:25:55;;;;;;;16.02;10.45;;;6.70;99.90;;;;;;5054015;28;20035;-73
2022/01/24 02:28:22;;;;;;;17.08;10.55;;;6.70;99.90;;;;;;5067646;28;20482;-77
2022/01/24 02:33:31;;;;;;;17.52;11.40;;;6.80;99.90;;;;;;5053620;28;20504;-76
2022/01/24 02:35:57;;;;;;;18.08;11.15;;;6.80;99.90;;;;;;5052888;28;20450;-76
2022/01/24 02:46:03;;;;;;;17.30;11.32;;;6.70;99.90;;;;;;5053617;28;20025;-76
2022/01/24 02:49:07;;;;;;;15.32;10.73;;;6.80;99.90;;;;;;5053053;28;20029;-77
2022/01/24 02:54:32;;;;;;;14.02;9.98;;;6.70;99.90;;;;;;5046553;28;20040;-77
2022/01/24 02:56:58;;;;;;;16.52;9.80;;;6.90;99.90;;;;;;5054196;28;20033;-76
2022/01/24 02:59:24;;;;;;;14.85;10.38;;;6.80;99.90;;;;;;5054175;28;20028;-76
2022/01/24 03:01:51;;;;;;;15.02;9.80;;;6.80;99.90;;;;;;5057265;28;20024;-77
2022/01/24 03:04:16;;;;;;;15.18;10.13;;;6.80;99.90;;;;;;5073253;28;20028;-76
2022/01/24 03:06:42;;;;;;;18.92;9.82;;;6.80;99.90;;;;;;5073726;28;20108;-76
2022/01/24 03:09:09;;;;;;;15.02;9.85;;;6.80;99.90;;;;;;5072758;28;20052;-76
2022/01/24 03:14:24;;;;;;;15.40;9.25;;;6.80;99.90;;;;;;5074619;28;20042;-76
2022/01/24 03:16:50;;;;;;;19.00;10.70;;;6.80;99.90;;;;;;5089359;28;20019;-76
2022/01/24 03:19:16;;;;;;;16.25;9.75;;;6.80;99.90;;;;;;5097604;28;20012;-76
2022/01/24 03:21:42;;;;;;;15.38;9.85;;;6.80;99.90;;;;;;5097388;28;20025;-76
2022/01/24 03:24:09;;;;;;;14.98;9.07;;;6.70;99.90;;;;;;5097826;28;20021;-76
2022/01/24 03:26:35;;;;;;;12.88;8.35;;;6.70;99.90;;;;;;5096941;28;20025;-76
2022/01/24 03:29:00;;;;;;;16.02;9.20;;;6.70;99.90;;;;;;5095419;28;20036;-76
2022/01/24 03:31:26;;;;;;;14.45;9.32;;;6.70;99.90;;;;;;5097664;28;20020;-76
2022/01/24 03:33:51;;;;;;;14.88;9.07;;;6.70;99.90;;;;;;5097668;28;20036;-77
2022/01/24 03:36:17;;;;;;;16.50;9.90;;;6.70;99.90;;;;;;5096444;28;20025;-77
2022/01/24 03:38:43;;;;;;;12.80;9.32;;;6.70;99.90;;;;;;5085013;28;20039;-76
2022/01/24 03:41:08;;;;;;;15.75;9.40;;;6.70;99.90;;;;;;5074446;28;20032;-77
2022/01/24 03:43:34;;;;;;;14.05;9.27;;;6.60;99.90;;;;;;5072083;28;20504;-77
2022/01/24 03:46:13;;;;;;;15.45;9.60;;;6.60;99.90;;;;;;5072918;28;20070;-76
2022/01/24 03:48:47;;;;;;;14.25;10.20;;;6.60;99.90;;;;;;5072367;28;20024;-77
2022/01/24 03:51:13;;;;;;;17.75;10.55;;;6.60;99.90;;;;;;5072877;28;20024;-76
2022/01/24 03:53:40;;;;;;;15.48;9.77;;;6.60;99.90;;;;;;5074612;28;20033;-78
2022/01/24 03:56:06;;;;;;;17.88;10.60;;;6.60;99.90;;;;;;5076502;28;20060;-78
2022/01/24 03:58:32;;;;;;;15.05;10.75;;;6.60;99.90;;;;;;5075717;28;20401;-77
2022/01/24 04:00:58;;;;;;;15.40;10.68;;;6.50;99.90;;;;;;5077772;28;20020;-78
2022/01/24 04:03:24;;;;;;;14.98;10.10;;;6.50;99.90;;;;;;5078771;28;20025;-78
2022/01/24 04:05:50;;;;;;;19.48;10.45;;;6.70;99.90;;;;;;5078118;28;20028;-78
2022/01/24 04:08:16;;;;;;;14.68;10.10;;;6.40;99.90;;;;;;5080610;28;20051;-77
2022/01/24 04:10:44;;;;;;;14.77;10.07;;;6.40;99.90;;;;;;5083001;28;20025;-74
2022/01/24 04:13:29;;;;;;;15.45;10.30;;;6.40;99.90;;;;;;5084361;28;20024;-74
2022/01/24 04:16:23;;;;;;;16.63;10.32;;;6.40;99.90;;;;;;5082499;28;20082;-75
2022/01/24 04:23:48;;;;;;;14.75;9.55;;;6.50;99.90;;;;;;5085533;28;20046;-74
2022/01/24 04:26:14;;;;;;;15.90;9.38;;;6.40;99.90;;;;;;5085438;28;20482;-75
2022/01/24 04:28:39;;;;;;;15.32;10.18;;;6.50;99.90;;;;;;5086056;28;20097;-75
2022/01/24 04:31:05;;;;;;;14.00;9.13;;;6.50;99.90;;;;;;5083319;28;20023;-75
2022/01/24 04:33:31;;;;;;;17.05;9.52;;;6.40;99.90;;;;;;5082386;28;20050;-75
2022/01/24 04:35:57;;;;;;;18.67;9.85;;;6.40;99.90;;;;;;5081538;28;20021;-75
2022/01/24 04:38:23;;;;;;;16.55;10.60;;;6.40;99.90;;;;;;5081899;28;20028;-75
2022/01/24 04:40:49;;;;;;;17.95;10.73;;;6.30;99.90;;;;;;5083359;28;20047;-74
2022/01/24 04:43:47;;;;;;;17.80;10.23;;;6.40;99.90;;;;;;5082520;28;20032;-75
2022/01/24 04:46:45;;;;;;;17.83;10.98;;;6.40;99.90;;;;;;5083221;28;20016;-75
2022/01/24 04:52:12;;;;;;;18.00;10.65;;;6.20;99.90;;;;;;5096382;28;20016;-74
2022/01/24 04:57:04;;;;;;;18.85;11.85;;;6.30;99.90;;;;;;5085022;28;20054;-75
2022/01/24 04:59:31;;;;;;;21.70;11.75;;;6.30;99.90;;;;;;5083266;28;20396;-75
2022/01/24 05:01:56;;;;;;;26.17;11.82;;;6.20;99.90;;;;;;5077533;28;20074;-75
2022/01/24 05:04:22;;;;;;;25.38;12.32;;;6.20;99.90;;;;;;5080750;28;20033;-73
2022/01/24 05:06:48;;;;;;;19.42;12.50;;;6.30;99.90;;;;;;5077068;28;20115;-75
2022/01/24 05:09:13;;;;;;;23.02;14.13;;;6.20;99.90;;;;;;5079375;28;20059;-76
2022/01/24 05:12:00;;;;;;;22.42;14.77;;;6.20;99.90;;;;;;5078939;28;20025;-76
2022/01/24 05:25:22;;;;;;;21.30;13.27;;;6.30;99.90;;;;;;5075964;28;20455;-75
2022/01/24 05:27:47;;;;;;;21.02;13.82;;;6.20;99.90;;;;;;5077038;28;20025;-76
2022/01/24 05:30:14;;;;;;;22.08;14.27;;;6.20;99.90;;;;;;5076022;28;20016;-74
2022/01/24 05:32:40;;;;;;;20.15;13.45;;;6.20;99.90;;;;;;5078319;28;20013;-74
2022/01/24 05:35:06;;;;;;;20.25;13.77;;;6.20;99.90;;;;;;5088288;28;20032;-75
2022/01/24 05:37:32;;;;;;;23.13;15.25;;;6.20;99.90;;;;;;5082981;28;20047;-76
2022/01/24 05:39:58;;;;;;;24.02;14.80;;;6.30;99.90;;;;;;5076665;28;20103;-75
2022/01/24 05:42:23;;;;;;;22.80;14.68;;;6.30;99.90;;;;;;5074242;28;20386;-76
2022/01/24 05:44:49;;;;;;;22.92;15.27;;;6.20;99.90;;;;;;5076192;28;20029;-74
2022/01/24 05:47:16;;;;;;;25.00;16.20;;;6.20;99.90;;;;;;5075169;28;20020;-75
2022/01/24 05:49:41;;;;;;;26.95;15.68;;;6.20;99.90;;;;;;5074333;28;20107;-76
2022/01/24 05:52:09;;;;;;;23.17;14.60;;;6.30;99.90;;;;;;5073327;28;20106;-75
2022/01/24 05:54:37;;;;;;;27.80;14.52;;;6.30;99.90;;;;;;5076877;28;20393;-75
2022/01/24 05:57:03;;;;;;;21.33;14.18;;;6.40;99.90;;;;;;5078905;28;20029;-75
2022/01/24 05:59:29;;;;;;;21.42;14.63;;;6.40;99.90;;;;;;5074553;28;20025;-76
2022/01/24 06:01:54;;;;;;;29.35;17.63;;;6.30;99.90;;;;;;5074273;28;20031;-76
2022/01/24 06:04:20;;;;;;;23.77;15.13;;;6.30;99.90;;;;;;5074047;28;20146;-75
2022/01/24 06:06:45;;;;;;;26.20;15.02;;;6.30;99.90;;;;;;5074064;28;20020;-76
2022/01/24 06:09:11;;;;;;;23.55;14.57;;;6.30;99.90;;;;;;5075960;28;20481;-77
2022/01/24 06:11:36;;;;;;;25.60;15.05;;;6.20;99.90;;;;;;5078105;28;20474;-76
2022/01/24 06:14:04;;;;;;;21.20;13.60;;;6.30;99.90;;;;;;5078542;28;20024;-76
2022/01/24 06:16:29;;;;;;;23.15;14.05;;;6.30;99.90;;;;;;5087148;28;20032;-77
2022/01/24 06:18:59;;;;;;;24.58;15.02;;;6.40;99.90;;;;;;5083962;28;20032;-77
2022/01/24 06:21:24;;;;;;;29.92;17.83;;;6.40;99.90;;;;;;5082143;28;20117;-76
2022/01/24 06:23:50;;;;;;;22.73;14.98;;;6.40;99.90;;;;;;5073969;28;20207;-76
2022/01/24 06:26:15;;;;;;;30.10;14.65;;;6.40;99.90;;;;;;5073690;28;20016;-75
2022/01/24 06:28:41;;;;;;;24.02;13.98;;;6.30;99.90;;;;;;5073619;28;20374;-76
2022/01/24 06:31:07;;;;;;;23.67;14.55;;;6.30;99.90;;;;;;5075300;28;20032;-76
2022/01/24 06:33:33;;;;;;;25.42;15.10;;;6.30;99.90;;;;;;5075383;28;20085;-76
2022/01/24 06:35:59;;;;;;;22.90;14.50;;;6.20;99.90;;;;;;5073370;28;20477;-75
2022/01/24 06:38:24;;;;;;;23.25;14.73;;;6.30;99.90;;;;;;5072161;28;20036;-76
2022/01/24 06:40:50;;;;;;;22.23;14.25;;;6.20;99.90;;;;;;5075586;28;20039;-75
2022/01/24 06:43:16;;;;;;;25.27;15.07;;;6.30;99.90;;;;;;5076071;28;20035;-77
2022/01/24 06:45:42;;;;;;;25.60;15.25;;;6.20;99.90;;;;;;5081354;28;20027;-76
2022/01/24 06:48:07;;;;;;;27.95;15.38;;;6.20;99.90;;;;;;5084270;28;20047;-78
2022/01/24 06:50:33;;;;;;;24.27;14.77;;;6.20;99.90;;;;;;5074430;28;20052;-76
2022/01/24 06:52:59;;;;;;;24.70;15.85;;;6.30;99.90;;;;;;5074180;28;20032;-76
2022/01/24 06:55:24;;;;;;;26.33;16.63;;;6.30;99.90;;;;;;5074689;28;20123;-77
2022/01/24 06:57:50;;;;;;;29.30;16.48;;;6.20;99.90;;;;;;5071992;22;20041;-74
2022/01/24 07:00:16;;;;;;;33.70;18.90;;;6.20;99.90;;;;;;5055755;28;20016;-75
2022/01/24 07:02:41;;;;;;;35.15;18.30;;;6.30;99.90;;;;;;5054418;28;20027;-75
2022/01/24 07:05:07;;;;;;;34.78;20.50;;;6.30;99.90;;;;;;5053359;28;20041;-75
2022/01/24 07:07:33;;;;;;;34.92;20.83;;;6.40;99.90;;;;;;5053604;28;20021;-76
2022/01/24 07:09:59;;;;;;;37.30;20.33;;;6.40;99.90;;;;;;5056001;28;20541;-74
2022/01/24 07:12:25;;;;;;;33.17;19.80;;;6.40;99.90;;;;;;5055195;28;20520;-75
2022/01/24 07:14:52;;;;;;;38.03;22.30;;;6.40;99.90;;;;;;5055630;28;20029;-75
2022/01/24 07:19:43;;;;;;;45.75;26.75;;;6.40;99.90;;;;;;5055750;28;20465;-76
2022/01/24 07:22:09;;;;;;;57.50;30.70;;;6.40;99.90;;;;;;5053942;28;20029;-75
2022/01/24 07:24:36;;;;;;;54.80;28.63;;;6.40;99.90;;;;;;5054170;28;20029;-76
2022/01/24 07:27:02;;;;;;;48.55;28.23;;;6.40;99.90;;;;;;5053503;28;20028;-76
2022/01/24 07:29:28;;;;;;;49.33;28.50;;;6.50;99.90;;;;;;5054115;28;20100;-75
2022/01/24 07:31:54;;;;;;;51.13;28.52;;;6.50;99.90;;;;;;5054386;28;20032;-76
2022/01/24 07:34:19;;;;;;;55.65;29.60;;;6.50;99.90;;;;;;5053663;28;20024;-76
2022/01/24 07:36:45;;;;;;;48.30;29.02;;;6.50;99.90;;;;;;5052852;28;20092;-75
2022/01/24 07:39:11;;;;;;;51.80;29.02;;;6.50;99.90;;;;;;5053230;28;20017;-75
2022/01/24 07:41:44;;;;;;;52.40;29.55;;;6.60;99.90;;;;;;5053482;28;20443;-76
2022/01/24 07:44:10;;;;;;;56.50;28.70;;;6.50;99.90;;;;;;5055252;28;20398;-76
2022/01/24 07:46:35;;;;;;;55.38;30.55;;;6.50;99.90;;;;;;5059990;28;20021;-76
2022/01/24 07:49:03;;;;;;;59.33;30.85;;;6.50;99.90;;;;;;5057195;28;20370;-76
2022/01/24 07:51:28;;;;;;;55.03;29.65;;;6.60;99.90;;;;;;5056032;28;20025;-76
2022/01/24 07:53:54;;;;;;;58.75;32.35;;;6.60;99.90;;;;;;5055472;28;20036;-75
2022/01/24 07:56:19;;;;;;;71.40;36.28;;;6.60;99.90;;;;;;5054594;28;20025;-76
2022/01/24 07:58:45;;;;;;;66.50;36.30;;;6.70;99.90;;;;;;5059169;28;20029;-75
2022/01/24 08:01:15;;;;;;;71.30;37.42;;;6.60;99.90;;;;;;5061313;28;20516;-76
2022/01/24 08:03:41;;;;;;;70.63;39.30;;;6.80;99.90;;;;;;5055248;28;20025;-75
2022/01/24 08:06:07;;;;;;;73.10;38.78;;;6.90;99.90;;;;;;5052226;28;20017;-75
2022/01/24 08:08:33;;;;;;;75.80;38.90;;;7.00;99.90;;;;;;5058077;28;20106;-76
2022/01/24 08:10:58;;;;;;;75.03;40.17;;;7.00;99.90;;;;;;5052880;28;20482;-75
2022/01/24 08:13:24;;;;;;;72.25;39.05;;;7.00;99.90;;;;;;5052222;28;20051;-74
2022/01/24 08:15:50;;;;;;;79.75;42.42;;;7.00;99.90;;;;;;5052114;28;20034;-75
2022/01/24 08:18:15;;;;;;;80.95;42.80;;;7.00;99.90;;;;;;5052740;28;20075;-75
2022/01/24 08:20:41;;;;;;;79.65;43.10;;;7.00;99.90;;;;;;5052421;28;20049;-75
2022/01/24 08:23:09;;;;;;;87.72;44.20;;;7.00;99.90;;;;;;5052903;28;20029;-74
2022/01/24 08:25:35;;;;;;;79.07;40.58;;;6.90;99.90;;;;;;5052278;28;20392;-76
2022/01/24 08:28:00;;;;;;;83.13;42.95;;;6.90;99.90;;;;;;5052185;28;20096;-75
2022/01/24 08:30:26;;;;;;;80.07;42.20;;;6.90;99.90;;;;;;5051932;28;20025;-76
2022/01/24 08:32:52;;;;;;;86.38;44.58;;;;;;;;;;5052346;28;20061;-76
2022/01/24 08:35:19;;;;;;;85.07;45.30;;;;;;;;;;5052020;28;20032;-75
2022/01/24 08:37:45;;;;;;;95.78;47.40;;;;;;;;;;5052551;28;20051;-75
2022/01/24 08:40:12;;;;;;;93.50;47.72;;;;;;;;;;5051480;28;20053;-74
2022/01/24 08:42:52;;;;;;;88.47;45.92;;;;;;;;;;5051681;28;20029;-74
2022/01/24 08:48:02;;;;;;;101.35;50.28;;;;;;;;;;5055529;28;20036;-75
2022/01/24 08:50:29;;;;;;;96.97;50.47;;;;;;;;;;5056487;28;20025;-75
2022/01/24 08:52:59;;;;;;;90.43;46.50;;;;;;;;;;5062088;28;20025;-76
2022/01/24 08:55:28;;;;;;;94.45;46.95;;;;;;;;;;5062975;28;20535;-79
2022/01/24 08:57:55;;;;;;;95.22;47.22;;;;;;;;;;5057869;28;20040;-77
2022/01/24 09:00:21;;;;;;;108.22;52.95;;;;;;;;;;5058691;28;20127;-78
2022/01/24 09:02:47;;;;;;;108.22;52.30;;;;;;;;;;5057299;28;20024;-76
2022/01/24 09:05:13;;;;;;;98.15;50.20;;;;;;;;;;5055943;28;20029;-76
2022/01/24 09:07:39;;;;;;;102.65;50.90;;;;;;;;;;5055255;28;20030;-75
2022/01/24 09:10:07;;;;;;;99.63;50.30;;;;;;;;;;5056745;28;20033;-75
2022/01/24 09:12:33;;;;;;;96.18;48.65;;;;;;;;;;5056068;28;20103;-75
2022/01/24 09:14:59;;;;;;;97.75;48.40;;;;;;;;;;5055284;28;20036;-74
2022/01/24 09:17:25;;;;;;;103.15;50.65;;;;;;;;;;5058013;28;20033;-74
2022/01/24 09:19:51;;;;;;;100.10;50.55;;;;;;;;;;5055432;28;20033;-76
2022/01/24 09:22:17;;;;;;;101.97;52.15;;;;;;;;;;5055941;28;20024;-76
2022/01/24 09:24:43;;;;;;;107.35;51.80;;;;;;;;;;5055237;28;20029;-76
2022/01/24 09:27:08;;;;;;;105.03;53.42;;;;;;;;;;5054483;28;20107;-76
2022/01/24 09:29:35;;;;;;;98.65;49.38;;;;;;;;;;5054704;28;20025;-74
2022/01/24 09:32:01;;;;;;;94.53;47.92;;;;;;;;;;5054855;28;20036;-74
2022/01/24 09:34:27;;;;;;;99.88;49.35;;;;;;;;;;5054867;28;20021;-74
2022/01/24 09:36:53;;;;;;;96.38;48.75;;;;;;;;;;5054208;28;20367;-75
2022/01/24 09:39:19;;;;;;;101.47;51.25;;;;;;;;;;5054719;28;20025;-76
2022/01/24 09:41:46;;;;;;;109.47;52.72;;;;;;;;;;5054078;28;20037;-75
2022/01/24 09:44:12;;;;;;;104.53;51.90;;;;;;;;;;5054078;28;20032;-75
2022/01/24 09:46:40;;;;;;;107.22;51.78;;;;;;;;;;5053912;28;20488;-76
2022/01/24 09:49:06;;;;;;;114.07;58.38;;;;;;;;;;5054555;28;20017;-75
2022/01/24 09:51:33;;;;;;;105.00;51.05;;;7.50;99.90;;;;;;5054290;28;20025;-75
2022/01/24 09:54:00;;;;;;;103.47;51.10;;;7.50;99.90;;;;;;5054633;28;20048;-75
2022/01/24 09:56:26;;;;;;;97.20;49.65;;;7.50;99.90;;;;;;5053359;28;20031;-76
2022/01/24 09:58:52;;;;;;;103.43;52.80;;;7.40;99.90;;;;;;5052179;28;20393;-76
2022/01/24 10:01:19;;;;;;;99.63;51.83;;;7.20;99.90;;;;;;5054181;28;20043;-76
2022/01/24 10:04:08;;;;;;;103.18;51.75;;;7.20;99.90;;;;;;5054338;28;20029;-76
2022/01/24 10:06:56;;;;;;;109.40;50.88;;;7.20;99.90;;;;;;5052844;28;20032;-76
2022/01/24 10:09:33;;;;;;;97.70;49.03;;;7.10;99.90;;;;;;5054448;28;20035;-76
2022/01/24 10:12:15;;;;;;;102.95;51.00;;;7.10;99.90;;;;;;5054610;28;20021;-73
2022/01/24 10:17:32;;;;;;;102.70;51.40;;;7.10;99.90;;;;;;5054224;28;20147;-76
2022/01/24 10:20:14;;;;;;;103.05;52.58;;;7.10;99.90;;;;;;5053512;28;20163;-76
2022/01/24 10:22:40;;;;;;;112.45;53.40;;;7.10;99.90;;;;;;5054366;28;20040;-74
2022/01/24 10:25:09;;;;;;;109.43;53.38;;;7.00;99.90;;;;;;5052689;28;20025;-77
2022/01/24 10:27:35;;;;;;;108.85;52.72;;;7.10;99.90;;;;;;5053557;28;20107;-75
2022/01/24 10:30:08;;;;;;;108.22;52.72;;;7.00;99.90;;;;;;5053609;28;20117;-75
2022/01/24 10:32:46;;;;;;;111.20;53.58;;;6.90;99.90;;;;;;5053700;28;20048;-75
2022/01/24 10:35:33;;;;;;;110.63;53.63;;;6.90;99.90;;;;;;5054010;28;20385;-74
2022/01/24 10:38:40;;;;;;;119.25;54.38;;;7.00;99.90;;;;;;5053941;28;20466;-76
2022/01/24 10:41:18;;;;;;;102.50;50.60;;;7.00;99.90;;;;;;5055386;28;20401;-76
2022/01/24 10:43:44;;;;;;;106.97;51.58;;;7.00;99.90;;;;;;5056571;28;20389;-80
2022/01/24 10:46:11;;;;;;;112.43;51.70;;;7.00;99.90;;;;;;5060880;28;20025;-77
2022/01/24 10:48:39;;;;;;;108.32;52.15;;;7.00;99.90;;;;;;5053517;28;20041;-76
2022/01/24 10:51:08;;;;;;;112.57;54.30;;;6.90;99.90;;;;;;5053787;28;20021;-75
2022/01/24 10:53:39;;;;;;;115.15;51.75;;;6.90;99.90;;;;;;5054456;28;20020;-75
2022/01/24 10:56:24;;;;;;;119.80;54.97;;;6.80;99.90;;;;;;5053642;28;20405;-75
2022/01/24 10:58:49;;;;;;;120.22;54.35;;;6.90;99.90;;;;;;5054101;28;20017;-76
2022/01/24 11:01:15;;;;;;;118.85;55.10;;;6.80;99.90;;;;;;5055304;28;20025;-76
2022/01/24 11:03:40;;;;;;;119.05;55.90;;;6.80;99.90;;;;;;5053470;28;20162;-77
2022/01/24 11:06:06;;;;;;;118.75;54.08;;;6.90;99.90;;;;;;5053120;28;20025;-77
2022/01/24 11:08:31;;;;;;;116.70;55.13;;;6.90;99.90;;;;;;5053344;28;20032;-77
2022/01/24 11:10:57;;;;;;;109.88;53.22;;;6.90;99.90;;;;;;5052393;28;20017;-77
2022/01/24 11:13:30;;;;;;;114.85;55.03;;;6.90;99.90;;;;;;5053215;28;20049;-76
2022/01/24 11:15:58;;;;;;;118.22;55.88;;;6.90;99.90;;;;;;5053790;28;20033;-75
2022/01/24 11:18:25;;;;;;;115.75;53.08;;;6.90;99.90;;;;;;5056573;28;20422;-76
2022/01/24 11:21:00;;;;;;;115.68;53.22;;;6.90;99.90;;;;;;5052551;28;20032;-76
2022/01/24 11:23:27;;;;;;;121.82;55.95;;;6.90;99.90;;;;;;5062626;28;20040;-77
2022/01/24 11:25:57;;;;;;;123.55;56.40;;;6.90;99.90;;;;;;5055935;28;20031;-75
2022/01/24 11:28:23;;;;;;;138.82;62.08;;;6.90;99.90;;;;;;5052807;28;20497;-75
2022/01/24 11:31:11;;;;;;;125.10;57.03;;;6.80;99.90;;;;;;5050986;28;20025;-75
2022/01/24 11:33:40;;;;;;;121.35;56.30;;;6.80;99.90;;;;;;5053173;28;20040;-76
2022/01/24 11:36:08;;;;;;;120.82;57.05;;;6.80;99.90;;;;;;5052369;28;20024;-76
2022/01/24 11:38:35;;;;;;;117.03;55.38;;;6.80;99.90;;;;;;5055355;28;20020;-76
2022/01/24 11:41:21;;;;;;;122.82;55.80;;;6.90;99.90;;;;;;5053450;28;20047;-75
2022/01/24 11:43:54;;;;;;;122.05;57.88;;;6.90;99.90;;;;;;5053597;28;20025;-76
2022/01/24 11:46:58;;;;;;;158.60;73.38;;;6.80;99.90;;;;;;5053627;28;20100;-77
2022/01/24 11:49:27;;;;;;;122.93;56.10;;;6.80;99.90;;;;;;5057862;28;20537;-75
2022/01/24 11:52:14;;;;;;;125.60;57.38;;;6.80;99.90;;;;;;5054046;28;20021;-75
2022/01/24 11:55:31;;;;;;;131.82;57.72;;;6.80;99.90;;;;;;5053378;28;20033;-76
2022/01/24 11:57:58;;;;;;;118.95;55.03;;;6.80;99.90;;;;;;5044857;28;20099;-74
2022/01/24 12:00:28;;;;;;;130.82;59.97;;;6.80;99.90;;;;;;5055634;28;20037;-74
2022/01/24 12:02:55;;;;;;;119.68;57.05;;;6.90;99.90;;;;;;5056277;28;20028;-75
2022/01/24 12:05:21;;;;;;;118.28;55.97;;;6.90;99.90;;;;;;5053224;28;20350;-76
2022/01/24 12:07:56;;;;;;;120.97;57.30;;;6.80;99.90;;;;;;5050993;28;20029;-75
2022/01/24 12:10:25;;;;;;;129.43;59.40;;;6.80;99.90;;;;;;5050809;28;20040;-75
2022/01/24 12:13:13;;;;;;;123.32;54.00;;;6.80;99.90;;;;;;5052230;28;20028;-76
2022/01/24 12:15:39;;;;;;;126.43;56.33;;;6.90;99.90;;;;;;5052079;28;20028;-74
2022/01/24 12:18:11;;;;;;;126.85;57.88;;;6.90;99.90;;;;;;5052465;28;20033;-76
2022/01/24 12:20:37;;;;;;;114.10;53.38;;;6.90;99.90;;;;;;5054024;28;20104;-76
2022/01/24 12:23:19;;;;;;;129.07;59.88;;;6.80;99.90;;;;;;5056738;28;20439;-77
2022/01/24 12:26:05;;;;;;;112.72;51.40;;;6.80;99.90;;;;;;5054835;28;20032;-76
2022/01/24 12:28:53;;;;;;;106.53;50.13;;;6.90;99.90;;;;;;5057392;28;20357;-76
2022/01/24 12:31:24;;;;;;;105.68;48.35;;;6.80;99.90;;;;;;5067232;28;20028;-80
2022/01/24 12:34:04;;;;;;;97.95;46.42;;;6.80;99.90;;;;;;5051152;28;20025;-75
2022/01/24 12:36:39;;;;;;;91.93;43.35;;;6.80;99.90;;;;;;5055381;28;20090;-74
2022/01/24 12:39:17;;;;;;;94.88;43.75;;;6.80;99.90;;;;;;5056529;28;20033;-75
2022/01/24 12:41:51;;;;;;;79.13;39.45;;;6.80;99.90;;;;;;5059615;28;20036;-76
2022/01/24 12:47:14;;;;;;;73.15;37.45;;;6.70;99.90;;;;;;5060625;28;20059;-77
2022/01/24 12:49:41;;;;;;;82.47;40.70;;;6.80;99.90;;;;;;5056200;28;20025;-76
2022/01/24 12:52:13;;;;;;;83.72;40.35;;;6.70;99.90;;;;;;5057712;28;20078;-76
2022/01/24 12:54:50;;;;;;;96.32;46.92;;;6.80;99.90;;;;;;5056223;28;20039;-77
2022/01/24 12:57:20;;;;;;;90.78;44.25;;;6.70;99.90;;;;;;5057277;28;20518;-77
2022/01/24 13:00:07;;;;;;;74.95;39.03;;;6.70;99.90;;;;;;5056601;28;20385;-76
2022/01/24 13:02:33;;;;;;;76.50;39.35;;;6.70;99.90;;;;;;5059340;28;20033;-78
2022/01/24 13:05:00;;;;;;;78.57;39.17;;;6.70;99.90;;;;;;5056563;28;20025;-77
2022/01/24 13:07:26;;;;;;;72.40;37.65;;;6.70;99.90;;;;;;5055611;28;20371;-75
2022/01/24 13:10:04;;;;;;;67.13;35.17;;;6.80;99.90;;;;;;5061656;28;20044;-76
2022/01/24 13:12:29;;;;;;;62.38;32.72;;;6.80;99.90;;;;;;5055275;28;20073;-76
2022/01/24 13:14:58;;;;;;;59.80;31.50;;;6.80;99.90;;;;;;5054924;28;20029;-77
2022/01/24 13:23:06;;;;;;;58.38;31.90;;;6.70;99.90;;;;;;5056344;28;20028;-78
2022/01/24 13:25:36;;;;;;;65.28;34.75;;;6.70;99.90;;;;;;5056572;28;20025;-76
2022/01/24 13:28:12;;;;;;;67.55;34.55;;;;;;;;;;5056486;28;20021;-77
2022/01/24 13:30:46;;;;;;;65.80;35.15;;;;;;;;;;5058140;28;20025;-77
2022/01/24 13:33:15;;;;;;;56.67;31.02;;;;;;;;;;5035141;28;20032;-75
2022/01/24 13:35:46;;;;;;;61.63;31.00;;;;;;;;;;5035403;28;20028;-75
2022/01/24 13:38:14;;;;;;;60.05;31.48;;;;;;;;;;5037255;28;20028;-76
2022/01/24 13:40:55;;;;;;;62.13;31.98;;;;;;;;;;5036677;28;20029;-76
2022/01/24 13:43:51;;;;;;;54.83;29.77;;;7.00;99.90;;;;;;5035865;28;20041;-75
2022/01/24 13:46:30;;;;;;;60.58;31.88;;;6.90;99.90;;;;;;5071613;22;20047;-77
2022/01/24 13:49:03;;;;;;;58.05;30.40;;;6.80;99.90;;;;;;5055208;28;20044;-76
2022/01/24 13:51:37;;;;;;;54.45;29.15;;;6.90;99.90;;;;;;5055779;28;20021;-76
2022/01/24 13:54:08;;;;;;;56.33;29.98;;;6.80;99.90;;;;;;5055180;28;20461;-77
2022/01/24 13:56:43;;;;;;;59.33;31.42;;;6.80;99.90;;;;;;5055150;28;20044;-76
2022/01/24 13:59:18;;;;;;;59.28;32.53;;;6.70;99.90;;;;;;5055442;28;20021;-75
2022/01/24 14:02:04;;;;;;;66.43;35.45;;;;;;;;;;5061405;28;20037;-77
2022/01/24 14:04:32;;;;;;;62.00;32.33;;;;;;;;;;5058282;28;20041;-76
2022/01/24 14:07:00;;;;;;;65.82;34.83;;;;;;;;;;5055071;28;20071;-75
2022/01/24 14:09:35;;;;;;;57.85;32.10;;;;;;;;;;5055752;28;20417;-76
2022/01/24 14:12:01;;;;;;;62.88;33.55;;;;;;;;;;5057621;28;20032;-77
2022/01/24 14:14:38;;;;;;;59.78;32.47;;;;;;;;;;5060311;28;20029;-77
2022/01/24 14:19:39;;;;;;;58.35;32.13;;;;;;;;;;5060406;28;20460;-75
2022/01/24 14:22:10;;;;;;;63.47;30.92;;;;;;;;;;5061268;28;20033;-75
2022/01/24 14:24:43;;;;;;;62.65;29.67;;;;;;;;;;5078784;28;20036;-76
2022/01/24 14:27:10;;;;;;;59.60;31.17;;;;;;;;;;5080696;28;20047;-77
2022/01/24 14:29:38;;;;;;;64.57;31.15;;;;;;;;;;5081572;28;20157;-77
2022/01/24 14:32:10;;;;;;;60.47;30.48;;;;;;;;;;5083379;28;20066;-77
2022/01/24 14:34:36;;;;;;;56.67;29.17;;;;;;;;;;5085641;28;20028;-74
2022/01/24 14:37:06;;;;;;;55.47;29.48;;;;;;;;;;5081466;28;20029;-75
2022/01/24 14:39:34;;;;;;;54.50;28.63;;;;;;;;;;5089887;28;20500;-74
2022/01/24 14:42:09;;;;;;;53.10;28.95;;;;;;;;;;5080169;28;20033;-75
2022/01/24 14:44:53;;;;;;;51.15;29.80;;;;;;;;;;5076025;28;20029;-76
2022/01/24 14:47:20;;;;;;;48.28;27.20;;;;;;;;;;5077910;28;20082;-76
2022/01/24 14:49:46;;;;;;;52.95;27.80;;;;;;;;;;5078425;28;20099;-76
2022/01/24 14:52:16;;;;;;;52.13;27.95;;;;;;;;;;5078361;28;20035;-77
2022/01/24 14:54:42;;;;;;;59.45;30.80;;;;;;;;;;5079941;28;20055;-77
2022/01/24 14:57:09;;;;;;;56.22;31.33;;;;;;;;;;5077807;28;20032;-76
2022/01/24 14:59:38;;;;;;;63.70;32.58;;;;;;;;;;5074559;28;20051;-76